Lehigh Valley International Airport
KABE : rendu visible

Aérodrome :











RETROUVEZ-NOUS SUR...

 
LOGIN :

S'inscrire | Disclaimer

   EN    FR    IT 

 









Légende :    VFR   VFR Marginal   IFR   IFR Intensif   IFR Très Intensif
Visi : 
Plafond : 
>= 8 km
>= 3000ft
5 à 8 km
1000 à 3000 ft
1500m à 5 km
500 à 1000 ft
800 à 1500m
200 à 500 ft
< 800m
< 200 ft
Symboles :   Orages  Brouillard  Fortes neiges  Fortes précipitations  Vent > 20 kt






- Altitude de l'aérodrome : 393 ft
- Code IATA : ABE


KABE - Lehigh Valley International

DERNIER METAR :
  • 271119Z 00000KT 10SM BKN009 OVC015 18/16 A3023 RMK AO2 T01780161 $

METARs EXPIRÉS :
  • 271111Z 00000KT 10SM SCT009 OVC015 18/16 A3023 RMK AO2 T01780161 $
  • 271104Z 00000KT 10SM OVC015 18/16 A3022 RMK AO2 T01780161 $
  • 271051Z 00000KT 10SM OVC013 18/16 A3023 RMK AO2 SLP233 T01780161 $
  • 271031Z AUTO 00000KT 9SM BKN014 17/16 A3023 RMK AO2 T01720161 $
  • 271001Z AUTO 00000KT 7SM CLR 16/15 A3021 RMK AO2 T01560150 $
  • 270951Z AUTO 00000KT 2 1/2SM BR CLR 16/14 A3021 RMK AO2 SLP227 T01560144 $
  • 270851Z AUTO 00000KT 7SM CLR 16/15 A3020 RMK AO2 SLP224 T01610150 $

TAF KABE
Valide du 27 à 12h jusqu'au 28 à 12h UTC


271120Z 2712/2812 VRB03KT P6SM OVC015
FM271400 15005KT P6SM BKN035
FM280500 15005KT P6SM OVC025
FM280800 15005KT 4SM -SHRA BR OVC007
FIR KZNY / Amérique du Nord



MET'MAP, la Météo Aéronautique d'un coup d'oeil ! - Copyright ORBIFLY Décembre 2007 - Disclaimer

ORBIFLY MET'MAP TEAM :

Programmation & Développement : Alexandra Zaïnal
Sur une idée originale de : Baudouin d'Aumeries
Assistance à la programmation : Marc-Olivier Méhu
Soutien technique & logistique : Manuel Goepfert

Contact : metmap@orbifly.com




SOURCES & CREDITS :

   NOAA       Earth
Advisory